PRIVATE WETTERSTATION BILLIGHEIM-ALLFELD                       ZURCK
Wetterdaten: Montag, 17.02.2014
Datum Zeit Temp. A. Temp. A. min Temp. A. max Feuchte A. Luftdruck Regen Wind Richtung Richtung Sonnenschein ET Solar Taupunkt Windchill Windben Empfang
17.02.2014 00:00 1,7 C 1,7 C 1,8 C 88 % 1014,2 hPa 0,0 l/m 0,0 km/h (0 Bft) S-SO 157 0 min 0,000 mm 0 W/m -0,1 C 1,7 C 1,6 km/h (1 Bft) 96 %
17.02.2014 00:10 2,2 C 1,7 C 2,2 C 88 % 1014,2 hPa 0,0 l/m 1,6 km/h (1 Bft) S-SO 157 0 min 0,000 mm 0 W/m 0,4 C 2,2 C 4,8 km/h (1 Bft) 88 %
17.02.2014 00:20 2,5 C 2,2 C 2,5 C 88 % 1014,2 hPa 0,0 l/m 1,6 km/h (1 Bft) SO 135 0 min 0,000 mm 0 W/m 0,7 C 2,5 C 6,4 km/h (2 Bft) 100 %
17.02.2014 00:30 2,9 C 2,5 C 2,9 C 88 % 1014,2 hPa 0,0 l/m 1,6 km/h (1 Bft) S-SO 157 0 min 0,000 mm 0 W/m 1,1 C 2,9 C 4,8 km/h (1 Bft) 99 %
17.02.2014 00:40 3,0 C 2,9 C 3,1 C 88 % 1014,2 hPa 0,0 l/m 1,6 km/h (1 Bft) S-SO 157 0 min 0,000 mm 0 W/m 1,2 C 3,0 C 8,0 km/h (2 Bft) 100 %
17.02.2014 00:50 3,1 C 3,0 C 3,1 C 89 % 1014,2 hPa 0,0 l/m 0,0 km/h (0 Bft) S-SO 157 0 min 0,000 mm 0 W/m 1,5 C 3,1 C 3,2 km/h (1 Bft) 99 %
17.02.2014 01:00 2,9 C 2,9 C 3,1 C 89 % 1014,2 hPa 0,0 l/m 0,0 km/h (0 Bft) S-SO 157 0 min 0,000 mm 0 W/m 1,3 C 2,9 C 3,2 km/h (1 Bft) 98 %
17.02.2014 01:10 3,0 C 2,9 C 3,0 C 89 % 1014,1 hPa 0,0 l/m 1,6 km/h (1 Bft) S-SO 157 0 min 0,000 mm 0 W/m 1,4 C 3,0 C 6,4 km/h (2 Bft) 100 %
17.02.2014 01:20 3,1 C 3,0 C 3,1 C 89 % 1014,1 hPa 0,0 l/m 1,6 km/h (1 Bft) SO 135 0 min 0,000 mm 0 W/m 1,5 C 3,1 C 6,4 km/h (2 Bft) 97 %
17.02.2014 01:30 2,9 C 2,9 C 3,1 C 89 % 1014,1 hPa 0,0 l/m 0,0 km/h (0 Bft) SO 135 0 min 0,000 mm 0 W/m 1,3 C 2,9 C 6,4 km/h (2 Bft) 100 %
17.02.2014 01:40 2,7 C 2,7 C 2,9 C 88 % 1014,2 hPa 0,0 l/m 0,0 km/h (0 Bft) SO 135 0 min 0,000 mm 0 W/m 0,9 C 2,7 C 3,2 km/h (1 Bft) 94 %
17.02.2014 01:50 2,7 C 2,7 C 2,7 C 89 % 1014,1 hPa 0,0 l/m 1,6 km/h (1 Bft) SO 135 0 min 0,000 mm 0 W/m 1,1 C 2,7 C 4,8 km/h (1 Bft) 89 %
17.02.2014 02:00 3,1 C 2,7 C 3,1 C 89 % 1014,0 hPa 0,0 l/m 3,2 km/h (1 Bft) SO 135 0 min 0,000 mm 0 W/m 1,5 C 3,1 C 6,4 km/h (2 Bft) 99 %
17.02.2014 02:10 3,2 C 3,1 C 3,2 C 88 % 1014,0 hPa 0,0 l/m 3,2 km/h (1 Bft) SO 135 0 min 0,000 mm 0 W/m 1,4 C 3,2 C 8,0 km/h (2 Bft) 91 %
17.02.2014 02:20 3,3 C 3,2 C 3,3 C 88 % 1014,0 hPa 0,0 l/m 1,6 km/h (1 Bft) S-SO 157 0 min 0,000 mm 0 W/m 1,5 C 3,3 C 6,4 km/h (2 Bft) 89 %
17.02.2014 02:30 3,1 C 3,1 C 3,3 C 88 % 1014,1 hPa 0,0 l/m 0,0 km/h (0 Bft) S-SO 157 0 min 0,000 mm 0 W/m 1,3 C 3,1 C 4,8 km/h (1 Bft) 87 %
17.02.2014 02:40 3,1 C 3,1 C 3,1 C 88 % 1014,0 hPa 0,0 l/m 0,0 km/h (0 Bft) S-SO 157 0 min 0,000 mm 0 W/m 1,3 C 3,1 C 4,8 km/h (1 Bft) 91 %
17.02.2014 02:50 3,0 C 3,0 C 3,1 C 89 % 1014,1 hPa 0,0 l/m 1,6 km/h (1 Bft) S-SO 157 0 min 0,000 mm 0 W/m 1,4 C 3,0 C 4,8 km/h (1 Bft) 92 %
17.02.2014 03:00 2,8 C 2,8 C 3,0 C 89 % 1014,1 hPa 0,0 l/m 0,0 km/h (0 Bft) S-SO 157 0 min 0,000 mm 0 W/m 1,2 C 2,8 C 3,2 km/h (1 Bft) 99 %
17.02.2014 03:10 2,9 C 2,8 C 3,0 C 89 % 1014,3 hPa 0,0 l/m 0,0 km/h (0 Bft) S-SO 157 0 min 0,000 mm 0 W/m 1,3 C 2,9 C 4,8 km/h (1 Bft) 99 %
17.02.2014 03:20 3,1 C 3,0 C 3,1 C 88 % 1014,2 hPa 0,0 l/m 0,0 km/h (0 Bft) S-SO 157 0 min 0,000 mm 0 W/m 1,3 C 3,1 C 1,6 km/h (1 Bft) 99 %
17.02.2014 03:30 3,1 C 3,0 C 3,1 C 88 % 1014,2 hPa 0,0 l/m 0,0 km/h (0 Bft) S-SO 157 0 min 0,000 mm 0 W/m 1,3 C 3,1 C 4,8 km/h (1 Bft) 89 %
17.02.2014 03:40 2,9 C 2,9 C 3,1 C 89 % 1014,2 hPa 0,0 l/m 0,0 km/h (0 Bft) S-SO 157 0 min 0,000 mm 0 W/m 1,3 C 2,9 C 4,8 km/h (1 Bft) 99 %
17.02.2014 03:50 2,8 C 2,8 C 2,9 C 89 % 1014,3 hPa 0,0 l/m 0,0 km/h (0 Bft) N 0 0 min 0,000 mm 0 W/m 1,2 C 2,8 C 0,0 km/h (0 Bft) 100 %
17.02.2014 04:00 2,6 C 2,6 C 2,8 C 89 % 1014,2 hPa 0,0 l/m 0,0 km/h (0 Bft) N 0 0 min 0,000 mm 0 W/m 1,0 C 2,6 C 0,0 km/h (0 Bft) 98 %
17.02.2014 04:10 2,2 C 2,2 C 2,6 C 89 % 1014,3 hPa 0,0 l/m 0,0 km/h (0 Bft) S-SO 157 0 min 0,000 mm 0 W/m 0,6 C 2,2 C 3,2 km/h (1 Bft) 100 %
17.02.2014 04:20 2,1 C 2,1 C 2,2 C 89 % 1014,3 hPa 0,0 l/m 0,0 km/h (0 Bft) N 0 0 min 0,000 mm 0 W/m 0,5 C 2,1 C 0,0 km/h (0 Bft) 99 %
17.02.2014 04:30 2,1 C 2,1 C 2,1 C 89 % 1014,3 hPa 0,0 l/m 0,0 km/h (0 Bft) N 0 0 min 0,000 mm 0 W/m 0,5 C 2,1 C 0,0 km/h (0 Bft) 100 %
17.02.2014 04:40 2,1 C 2,1 C 2,1 C 89 % 1014,3 hPa 0,0 l/m 0,0 km/h (0 Bft) N 0 0 min 0,000 mm 0 W/m 0,5 C 2,1 C 0,0 km/h (0 Bft) 100 %
17.02.2014 04:50 2,2 C 2,1 C 2,2 C 89 % 1014,3 hPa 0,2 l/m 0,0 km/h (0 Bft) N 0 0 min 0,000 mm 0 W/m 0,6 C 2,2 C 0,0 km/h (0 Bft) 100 %
17.02.2014 05:00 2,4 C 2,2 C 2,4 C 88 % 1014,3 hPa 0,0 l/m 1,6 km/h (1 Bft) S-SO 157 0 min 0,000 mm 0 W/m 0,6 C 2,4 C 3,2 km/h (1 Bft) 100 %
17.02.2014 05:10 2,3 C 2,3 C 2,5 C 89 % 1014,3 hPa 0,0 l/m 0,0 km/h (0 Bft) N 0 0 min 0,000 mm 0 W/m 0,7 C 2,3 C 0,0 km/h (0 Bft) 89 %
17.02.2014 05:20 2,1 C 2,1 C 2,3 C 89 % 1014,3 hPa 0,0 l/m 0,0 km/h (0 Bft) SW 225 0 min 0,000 mm 0 W/m 0,5 C 2,1 C 1,6 km/h (1 Bft) 100 %
17.02.2014 05:30 1,8 C 1,8 C 2,1 C 89 % 1014,3 hPa 0,0 l/m 0,0 km/h (0 Bft) W-SW 247 0 min 0,000 mm 0 W/m 0,2 C 1,8 C 3,2 km/h (1 Bft) 100 %
17.02.2014 05:40 1,4 C 1,4 C 1,8 C 89 % 1014,3 hPa 0,0 l/m 0,0 km/h (0 Bft) W-NW 292 0 min 0,000 mm 0 W/m -0,2 C 1,4 C 3,2 km/h (1 Bft) 100 %
17.02.2014 05:50 1,4 C 1,4 C 1,4 C 89 % 1014,4 hPa 0,0 l/m 0,0 km/h (0 Bft) W-NW 292 0 min 0,000 mm 0 W/m -0,2 C 1,4 C 1,6 km/h (1 Bft) 100 %
17.02.2014 06:00 1,2 C 1,2 C 1,4 C 89 % 1014,3 hPa 0,0 l/m 0,0 km/h (0 Bft) W-NW 292 0 min 0,000 mm 0 W/m -0,4 C 1,2 C 1,6 km/h (1 Bft) 100 %
17.02.2014 06:10 1,1 C 1,1 C 1,2 C 88 % 1014,4 hPa 0,0 l/m 0,0 km/h (0 Bft) W-NW 292 0 min 0,000 mm 0 W/m -0,7 C 1,1 C 1,6 km/h (1 Bft) 100 %
17.02.2014 06:20 1,1 C 1,1 C 1,1 C 89 % 1014,4 hPa 0,0 l/m 0,0 km/h (0 Bft) N 0 0 min 0,000 mm 0 W/m -0,5 C 1,1 C 0,0 km/h (0 Bft) 100 %
17.02.2014 06:30 0,9 C 0,9 C 1,1 C 88 % 1014,4 hPa 0,0 l/m 0,0 km/h (0 Bft) N 0 0 min 0,000 mm 0 W/m -0,9 C 0,9 C 0,0 km/h (0 Bft) 100 %
17.02.2014 06:40 0,8 C 0,8 C 0,9 C 88 % 1014,5 hPa 0,0 l/m 0,0 km/h (0 Bft) W-NW 292 0 min 0,000 mm 0 W/m -1,0 C 0,8 C 1,6 km/h (1 Bft) 99 %
17.02.2014 06:50 0,7 C 0,7 C 0,8 C 88 % 1014,6 hPa 0,0 l/m 0,0 km/h (0 Bft) W-NW 292 0 min 0,000 mm 0 W/m -1,1 C 0,7 C 1,6 km/h (1 Bft) 99 %
17.02.2014 07:00 0,4 C 0,4 C 0,7 C 89 % 1014,6 hPa 0,0 l/m 0,0 km/h (0 Bft) W-NW 292 0 min 0,000 mm 0 W/m -1,2 C 0,4 C 1,6 km/h (1 Bft) 100 %
17.02.2014 07:10 0,4 C 0,4 C 0,5 C 88 % 1014,7 hPa 0,0 l/m 0,0 km/h (0 Bft) N 0 0 min 0,000 mm 0 W/m -1,3 C 0,4 C 0,0 km/h (0 Bft) 100 %
17.02.2014 07:20 0,2 C 0,2 C 0,4 C 88 % 1014,9 hPa 0,0 l/m 0,0 km/h (0 Bft) W-NW 292 0 min 0,000 mm 0 W/m -1,5 C 0,2 C 1,6 km/h (1 Bft) 100 %
17.02.2014 07:30 0,0 C 0,0 C 0,2 C 89 % 1015,0 hPa 0,0 l/m 0,0 km/h (0 Bft) N 0 0 min 0,000 mm 0 W/m -1,6 C 0,0 C 0,0 km/h (0 Bft) 98 %
17.02.2014 07:40 -0,1 C -0,1 C 0,0 C 88 % 1014,9 hPa 0,0 l/m 0,0 km/h (0 Bft) W-NW 292 0 min 0,000 mm 7 W/m -1,8 C -0,1 C 1,6 km/h (1 Bft) 100 %
17.02.2014 07:50 -0,2 C -0,2 C -0,1 C 88 % 1015,0 hPa 0,0 l/m 0,0 km/h (0 Bft) W-NW 292 0 min 0,000 mm 12 W/m -1,9 C -0,2 C 1,6 km/h (1 Bft) 100 %
17.02.2014 08:00 -0,3 C -0,3 C -0,2 C 89 % 1015,1 hPa 0,0 l/m 0,0 km/h (0 Bft) W-NW 292 0 min 0,000 mm 14 W/m -1,9 C -0,3 C 1,6 km/h (1 Bft) 100 %
17.02.2014 08:10 -0,4 C -0,4 C -0,3 C 89 % 1015,2 hPa 0,0 l/m 0,0 km/h (0 Bft) W-NW 292 0 min 0,000 mm 19 W/m -2,0 C -0,4 C 1,6 km/h (1 Bft) 100 %
17.02.2014 08:20 -0,4 C -0,4 C -0,4 C 88 % 1015,3 hPa 0,0 l/m 0,0 km/h (0 Bft) N 0 0 min 0,000 mm 26 W/m -2,1 C -0,4 C 0,0 km/h (0 Bft) 100 %
17.02.2014 08:30 -0,3 C -0,4 C -0,3 C 88 % 1015,1 hPa 0,0 l/m 0,0 km/h (0 Bft) N 0 0 min 0,000 mm 26 W/m -2,0 C -0,3 C 0,0 km/h (0 Bft) 100 %
17.02.2014 08:40 -0,2 C -0,3 C -0,2 C 88 % 1015,3 hPa 0,0 l/m 0,0 km/h (0 Bft) N 0 0 min 0,000 mm 84 W/m -1,9 C -0,2 C 0,0 km/h (0 Bft) 96 %
17.02.2014 08:50 0,4 C -0,2 C 0,4 C 88 % 1015,4 hPa 0,0 l/m 0,0 km/h (0 Bft) W-NW 292 10 min 0,000 mm 155 W/m -1,3 C 0,4 C 1,6 km/h (1 Bft) 100 %
17.02.2014 09:00 1,4 C 0,4 C 1,4 C 88 % 1015,5 hPa 0,0 l/m 0,0 km/h (0 Bft) N 0 10 min 0,025 mm 172 W/m -0,4 C 1,4 C 0,0 km/h (0 Bft) 100 %
17.02.2014 09:10 1,9 C 1,4 C 1,9 C 88 % 1015,6 hPa 0,0 l/m 0,0 km/h (0 Bft) N 0 10 min 0,000 mm 190 W/m 0,1 C 1,9 C 0,0 km/h (0 Bft) 99 %
17.02.2014 09:20 2,4 C 1,9 C 2,4 C 88 % 1015,6 hPa 0,0 l/m 0,0 km/h (0 Bft) N 0 10 min 0,000 mm 211 W/m 0,6 C 2,4 C 0,0 km/h (0 Bft) 97 %
17.02.2014 09:30 3,1 C 2,4 C 3,1 C 88 % 1015,5 hPa 0,0 l/m 0,0 km/h (0 Bft) W-NW 292 10 min 0,000 mm 229 W/m 1,3 C 3,1 C 1,6 km/h (1 Bft) 94 %
17.02.2014 09:40 3,4 C 3,1 C 3,4 C 89 % 1015,8 hPa 0,0 l/m 0,0 km/h (0 Bft) W-NW 292 10 min 0,000 mm 248 W/m 1,8 C 3,4 C 1,6 km/h (1 Bft) 100 %
17.02.2014 09:50 4,2 C 3,4 C 4,2 C 89 % 1015,8 hPa 0,0 l/m 0,0 km/h (0 Bft) W-NW 292 10 min 0,000 mm 265 W/m 2,6 C 4,2 C 1,6 km/h (1 Bft) 100 %
17.02.2014 10:00 5,1 C 4,2 C 5,1 C 88 % 1015,8 hPa 0,0 l/m 0,0 km/h (0 Bft) W-NW 292 10 min 0,076 mm 283 W/m 3,3 C 5,1 C 1,6 km/h (1 Bft) 100 %
17.02.2014 10:10 5,9 C 5,1 C 5,9 C 87 % 1015,8 hPa 0,0 l/m 0,0 km/h (0 Bft) W-NW 292 10 min 0,000 mm 301 W/m 3,9 C 5,9 C 1,6 km/h (1 Bft) 100 %
17.02.2014 10:20 6,6 C 5,9 C 6,6 C 83 % 1015,8 hPa 0,0 l/m 0,0 km/h (0 Bft) W 270 10 min 0,000 mm 316 W/m 3,9 C 6,6 C 3,2 km/h (1 Bft) 100 %
17.02.2014 10:30 7,1 C 6,7 C 7,1 C 80 % 1015,9 hPa 0,0 l/m 1,6 km/h (1 Bft) W 270 10 min 0,000 mm 341 W/m 3,9 C 7,1 C 4,8 km/h (1 Bft) 100 %
17.02.2014 10:40 7,1 C 7,0 C 7,1 C 81 % 1015,8 hPa 0,0 l/m 1,6 km/h (1 Bft) S-SW 202 10 min 0,000 mm 371 W/m 4,1 C 7,1 C 6,4 km/h (2 Bft) 100 %
17.02.2014 10:50 7,1 C 7,1 C 7,1 C 80 % 1015,9 hPa 0,0 l/m 1,6 km/h (1 Bft) S-SW 202 10 min 0,000 mm 385 W/m 3,9 C 7,1 C 8,0 km/h (2 Bft) 100 %
17.02.2014 11:00 7,2 C 7,1 C 7,2 C 78 % 1016,1 hPa 0,0 l/m 3,2 km/h (1 Bft) S-SW 202 10 min 0,152 mm 404 W/m 3,6 C 7,2 C 9,7 km/h (2 Bft) 100 %
17.02.2014 11:10 7,6 C 7,2 C 7,6 C 78 % 1016,1 hPa 0,0 l/m 1,6 km/h (1 Bft) S-SW 202 10 min 0,000 mm 418 W/m 4,0 C 7,6 C 9,7 km/h (2 Bft) 100 %
17.02.2014 11:20 7,4 C 7,2 C 7,6 C 75 % 1016,2 hPa 0,0 l/m 0,0 km/h (0 Bft) S 175 10 min 0,001 mm 431 W/m 3,3 C 7,4 C 0,0 km/h (0 Bft) 94 %
17.02.2014 11:30 7,7 C 7,3 C 7,7 C 79 % 1016,3 hPa 0,0 l/m 1,1 km/h (1 Bft) W-SW 240 10 min 0,000 mm 439 W/m 4,3 C 7,7 C 8,0 km/h (2 Bft) 97 %
17.02.2014 11:40 8,2 C 7,7 C 8,2 C 77 % 1016,4 hPa 0,0 l/m 2,5 km/h (1 Bft) S-SW 209 10 min 0,000 mm 448 W/m 4,4 C 8,2 C 9,7 km/h (2 Bft) 89 %
17.02.2014 11:50 8,5 C 8,2 C 8,5 C 75 % 1016,2 hPa 0,0 l/m 3,2 km/h (1 Bft) S-SW 209 10 min 0,000 mm 455 W/m 4,3 C 8,5 C 8,0 km/h (2 Bft) 97 %
17.02.2014 12:00 8,7 C 8,5 C 8,7 C 75 % 1016,3 hPa 0,0 l/m 1,8 km/h (1 Bft) S 182 10 min 0,203 mm 461 W/m 4,5 C 8,7 C 9,7 km/h (2 Bft) 98 %
17.02.2014 12:10 8,8 C 8,7 C 8,8 C 72 % 1016,2 hPa 0,0 l/m 1,7 km/h (1 Bft) S-SW 201 10 min 0,000 mm 469 W/m 4,0 C 8,8 C 9,7 km/h (2 Bft) 98 %
17.02.2014 12:20 9,1 C 8,8 C 9,1 C 73 % 1016,1 hPa 0,0 l/m 3,3 km/h (1 Bft) S-SW 209 10 min 0,000 mm 471 W/m 4,5 C 9,1 C 9,7 km/h (2 Bft) 98 %
17.02.2014 12:30 9,2 C 9,1 C 9,2 C 69 % 1016,2 hPa 0,0 l/m 2,3 km/h (1 Bft) W-SW 257 10 min 0,000 mm 471 W/m 3,8 C 9,2 C 16,1 km/h (3 Bft) 97 %
17.02.2014 12:40 9,4 C 9,2 C 9,4 C 69 % 1016,2 hPa 0,0 l/m 4,4 km/h (1 Bft) S-SW 197 10 min 0,000 mm 478 W/m 4,0 C 9,4 C 11,3 km/h (2 Bft) 97 %
17.02.2014 12:50 9,5 C 9,4 C 9,6 C 65 % 1016,2 hPa 0,0 l/m 5,0 km/h (1 Bft) S 176 10 min 0,000 mm 478 W/m 3,3 C 9,5 C 14,5 km/h (3 Bft) 98 %
17.02.2014 13:00 9,6 C 9,4 C 9,6 C 66 % 1016,1 hPa 0,0 l/m 2,5 km/h (1 Bft) S-SW 197 10 min 0,229 mm 475 W/m 3,6 C 9,6 C 11,3 km/h (2 Bft) 97 %
17.02.2014 13:10 9,7 C 9,6 C 9,7 C 65 % 1016,1 hPa 0,0 l/m 4,0 km/h (1 Bft) S 173 10 min 0,000 mm 471 W/m 3,4 C 9,7 C 14,5 km/h (3 Bft) 98 %
17.02.2014 13:20 9,8 C 9,7 C 9,8 C 63 % 1016,0 hPa 0,0 l/m 2,8 km/h (1 Bft) SO 142 10 min 0,000 mm 468 W/m 3,1 C 9,8 C 11,3 km/h (2 Bft) 97 %
17.02.2014 13:30 9,8 C 9,7 C 9,8 C 62 % 1016,0 hPa 0,0 l/m 4,8 km/h (1 Bft) SO 144 10 min 0,000 mm 478 W/m 2,9 C 9,8 C 14,5 km/h (3 Bft) 98 %
17.02.2014 13:40 9,8 C 9,7 C 9,8 C 60 % 1015,9 hPa 0,0 l/m 6,3 km/h (2 Bft) W-SW 239 10 min 0,000 mm 380 W/m 2,4 C 9,8 C 11,3 km/h (2 Bft) 97 %
17.02.2014 13:50 9,8 C 9,8 C 10,0 C 63 % 1016,0 hPa 0,0 l/m 3,8 km/h (1 Bft) SO 145 0 min 0,000 mm 123 W/m 3,1 C 9,8 C 14,5 km/h (3 Bft) 97 %
17.02.2014 14:00 10,0 C 9,6 C 10,0 C 60 % 1016,1 hPa 0,0 l/m 3,3 km/h (1 Bft) S 173 10 min 0,203 mm 508 W/m 2,6 C 10,0 C 11,3 km/h (2 Bft) 97 %
17.02.2014 14:10 10,1 C 10,0 C 10,2 C 62 % 1016,2 hPa 0,0 l/m 3,8 km/h (1 Bft) S-SW 200 10 min 0,000 mm 494 W/m 3,2 C 10,1 C 11,3 km/h (2 Bft) 97 %
17.02.2014 14:20 10,3 C 10,1 C 10,4 C 58 % 1016,2 hPa 0,0 l/m 2,6 km/h (1 Bft) S-SW 210 10 min 0,000 mm 496 W/m 2,4 C 10,3 C 11,3 km/h (2 Bft) 97 %
17.02.2014 14:30 10,1 C 10,1 C 10,4 C 59 % 1016,1 hPa 0,0 l/m 0,5 km/h (0 Bft) SO 144 0 min 0,000 mm 113 W/m 2,5 C 10,1 C 8,0 km/h (2 Bft) 97 %
17.02.2014 14:40 9,7 C 9,7 C 10,1 C 62 % 1016,2 hPa 0,0 l/m 2,2 km/h (1 Bft) SW 227 0 min 0,000 mm 137 W/m 2,8 C 9,7 C 8,0 km/h (2 Bft) 97 %
17.02.2014 14:50 10,3 C 9,7 C 10,3 C 59 % 1016,2 hPa 0,0 l/m 4,2 km/h (1 Bft) S-SW 212 10 min 0,000 mm 415 W/m 2,6 C 10,3 C 11,3 km/h (2 Bft) 97 %
17.02.2014 15:00 10,7 C 10,3 C 10,8 C 60 % 1016,1 hPa 0,0 l/m 1,8 km/h (1 Bft) SO 137 10 min 0,178 mm 410 W/m 3,3 C 10,7 C 11,3 km/h (2 Bft) 97 %
17.02.2014 15:10 10,2 C 10,2 C 10,7 C 59 % 1016,1 hPa 0,0 l/m 1,8 km/h (1 Bft) S-SW 204 0 min 0,000 mm 137 W/m 2,6 C 10,2 C 9,7 km/h (2 Bft) 98 %
17.02.2014 15:20 9,9 C 9,9 C 10,2 C 59 % 1016,2 hPa 0,0 l/m 3,9 km/h (1 Bft) SW 215 0 min 0,000 mm 134 W/m 2,3 C 9,9 C 11,3 km/h (2 Bft) 96 %
17.02.2014 15:30 9,6 C 9,6 C 9,9 C 60 % 1016,3 hPa 0,0 l/m 2,2 km/h (1 Bft) S 171 0 min 0,000 mm 98 W/m 2,2 C 9,6 C 11,3 km/h (2 Bft) 97 %
17.02.2014 15:40 9,2 C 9,2 C 9,6 C 62 % 1016,3 hPa 0,0 l/m 1,3 km/h (1 Bft) S 189 0 min 0,000 mm 69 W/m 2,3 C 9,2 C 9,7 km/h (2 Bft) 97 %
17.02.2014 15:50 9,0 C 9,0 C 9,2 C 60 % 1016,3 hPa 0,0 l/m 0,8 km/h (0 Bft) SO 140 0 min 0,000 mm 51 W/m 1,7 C 9,0 C 4,8 km/h (1 Bft) 97 %
17.02.2014 16:00 8,8 C 8,8 C 9,0 C 63 % 1016,3 hPa 0,0 l/m 1,0 km/h (0 Bft) S 190 0 min 0,051 mm 151 W/m 2,2 C 8,8 C 6,4 km/h (2 Bft) 99 %
17.02.2014 16:10 9,1 C 8,8 C 9,1 C 59 % 1016,3 hPa 0,0 l/m 0,0 km/h (0 Bft) SW 232 0 min 0,000 mm 86 W/m 1,5 C 9,1 C 1,6 km/h (1 Bft) 99 %
17.02.2014 16:20 9,4 C 9,1 C 9,4 C 58 % 1016,3 hPa 0,0 l/m 0,1 km/h (0 Bft) W-SW 244 0 min 0,000 mm 51 W/m 1,6 C 9,4 C 4,8 km/h (1 Bft) 98 %
17.02.2014 16:30 9,4 C 9,4 C 9,5 C 56 % 1016,4 hPa 0,0 l/m 0,7 km/h (0 Bft) W-SW 256 0 min 0,000 mm 26 W/m 1,1 C 9,4 C 3,2 km/h (1 Bft) 98 %
17.02.2014 16:40 9,1 C 9,1 C 9,4 C 57 % 1016,5 hPa 0,0 l/m 0,0 km/h (0 Bft) W-SW 256 0 min 0,000 mm 23 W/m 1,0 C 9,1 C 1,6 km/h (1 Bft) 97 %
17.02.2014 16:50 8,8 C 8,8 C 9,1 C 56 % 1016,6 hPa 0,0 l/m 0,0 km/h (0 Bft) W-SW 256 0 min 0,000 mm 23 W/m 0,5 C 8,8 C 0,0 km/h (0 Bft) 97 %
17.02.2014 17:00 8,5 C 8,5 C 8,8 C 58 % 1016,5 hPa 0,0 l/m 0,0 km/h (0 Bft) W-SW 256 0 min 0,025 mm 19 W/m 0,7 C 8,5 C 0,0 km/h (0 Bft) 97 %
17.02.2014 17:10 8,3 C 8,3 C 8,6 C 59 % 1016,4 hPa 0,0 l/m 0,0 km/h (0 Bft) W-SW 256 0 min 0,000 mm 18 W/m 0,8 C 8,3 C 0,0 km/h (0 Bft) 98 %
17.02.2014 17:20 8,2 C 8,2 C 8,3 C 58 % 1016,5 hPa 0,0 l/m 0,0 km/h (0 Bft) W-SW 256 0 min 0,000 mm 14 W/m 0,4 C 8,2 C 0,0 km/h (0 Bft) 97 %
17.02.2014 17:30 8,1 C 8,1 C 8,2 C 58 % 1016,5 hPa 0,0 l/m 0,0 km/h (0 Bft) W-SW 256 0 min 0,000 mm 11 W/m 0,3 C 8,1 C 1,6 km/h (1 Bft) 97 %
17.02.2014 17:40 7,9 C 7,9 C 8,1 C 60 % 1016,5 hPa 0,0 l/m 0,0 km/h (0 Bft) W-SW 256 0 min 0,000 mm 5 W/m 0,6 C 7,9 C 0,0 km/h (0 Bft) 97 %
17.02.2014 17:50 7,7 C 7,7 C 7,9 C 61 % 1016,6 hPa 0,0 l/m 0,0 km/h (0 Bft) W-SW 256 0 min 0,000 mm 0 W/m 0,7 C 7,7 C 0,0 km/h (0 Bft) 98 %
17.02.2014 18:00 7,3 C 7,3 C 7,7 C 63 % 1016,8 hPa 0,0 l/m 0,2 km/h (0 Bft) W-SW 256 0 min 0,000 mm 0 W/m 0,7 C 7,3 C 1,6 km/h (1 Bft) 97 %
17.02.2014 18:10 7,1 C 7,1 C 7,3 C 63 % 1016,9 hPa 0,0 l/m 0,0 km/h (0 Bft) W-SW 256 0 min 0,000 mm 0 W/m 0,5 C 7,1 C 0,0 km/h (0 Bft) 97 %
17.02.2014 18:20 6,8 C 6,8 C 7,1 C 64 % 1016,9 hPa 0,0 l/m 0,0 km/h (0 Bft) W-SW 256 0 min 0,000 mm 0 W/m 0,5 C 6,8 C 0,0 km/h (0 Bft) 97 %
17.02.2014 18:30 6,5 C 6,5 C 6,8 C 66 % 1017,0 hPa 0,0 l/m 0,0 km/h (0 Bft) W-SW 256 0 min 0,000 mm 0 W/m 0,6 C 6,5 C 0,0 km/h (0 Bft) 97 %
17.02.2014 18:40 6,1 C 6,1 C 6,5 C 66 % 1016,9 hPa 0,0 l/m 0,0 km/h (0 Bft) W-SW 256 0 min 0,000 mm 0 W/m 0,2 C 6,1 C 0,0 km/h (0 Bft) 98 %
17.02.2014 18:50 5,9 C 5,9 C 6,1 C 68 % 1017,0 hPa 0,0 l/m 0,0 km/h (0 Bft) W-SW 256 0 min 0,000 mm 0 W/m 0,5 C 5,9 C 0,0 km/h (0 Bft) 97 %
17.02.2014 19:00 5,4 C 5,4 C 5,9 C 72 % 1017,1 hPa 0,0 l/m 0,2 km/h (0 Bft) W-SW 256 0 min 0,025 mm 0 W/m 0,8 C 5,4 C 1,6 km/h (1 Bft) 89 %
17.02.2014 19:10 4,8 C 4,8 C 5,4 C 72 % 1017,2 hPa 0,0 l/m 0,4 km/h (0 Bft) W 260 0 min 0,000 mm 0 W/m 0,2 C 4,8 C 1,6 km/h (1 Bft) 98 %
17.02.2014 19:20 4,5 C 4,5 C 4,8 C 74 % 1017,3 hPa 0,0 l/m 0,0 km/h (0 Bft) W 260 0 min 0,000 mm 0 W/m 0,3 C 4,5 C 1,6 km/h (1 Bft) 97 %
17.02.2014 19:30 4,3 C 4,3 C 4,5 C 75 % 1017,4 hPa 0,0 l/m 0,2 km/h (0 Bft) W 270 0 min 0,000 mm 0 W/m 0,3 C 4,3 C 1,6 km/h (1 Bft) 97 %
17.02.2014 19:40 4,2 C 4,2 C 4,3 C 75 % 1017,3 hPa 0,0 l/m 0,2 km/h (0 Bft) W 270 0 min 0,000 mm 0 W/m 0,2 C 4,2 C 1,6 km/h (1 Bft) 97 %
17.02.2014 19:50 4,0 C 4,0 C 4,2 C 76 % 1017,4 hPa 0,0 l/m 0,0 km/h (0 Bft) W 270 0 min 0,000 mm 0 W/m 0,2 C 4,0 C 0,0 km/h (0 Bft) 98 %
17.02.2014 20:00 3,7 C 3,7 C 4,0 C 79 % 1017,4 hPa 0,0 l/m 0,0 km/h (0 Bft) W 270 0 min 0,026 mm 0 W/m 0,4 C 3,7 C 0,0 km/h (0 Bft) 97 %
17.02.2014 20:10 3,3 C 3,3 C 3,7 C 80 % 1017,4 hPa 0,0 l/m 0,1 km/h (0 Bft) W 270 0 min 0,000 mm 0 W/m 0,2 C 3,3 C 1,6 km/h (1 Bft) 97 %
17.02.2014 20:20 3,0 C 3,0 C 3,3 C 81 % 1017,6 hPa 0,0 l/m 0,0 km/h (0 Bft) W 270 0 min 0,000 mm 0 W/m 0,1 C 3,0 C 0,0 km/h (0 Bft) 97 %
17.02.2014 20:30 2,9 C 2,9 C 3,0 C 81 % 1017,5 hPa 0,0 l/m 0,0 km/h (0 Bft) W 270 0 min 0,000 mm 0 W/m -0,0 C 2,9 C 0,0 km/h (0 Bft) 97 %
17.02.2014 20:40 2,7 C 2,7 C 2,9 C 81 % 1017,4 hPa 0,0 l/m 0,2 km/h (0 Bft) W 270 0 min 0,000 mm 0 W/m -0,2 C 2,7 C 1,6 km/h (1 Bft) 97 %
17.02.2014 20:50 2,4 C 2,4 C 2,7 C 82 % 1017,5 hPa 0,0 l/m 0,1 km/h (0 Bft) W 270 0 min 0,000 mm 0 W/m -0,4 C 2,4 C 3,2 km/h (1 Bft) 100 %
17.02.2014 21:00 2,2 C 2,2 C 2,4 C 84 % 1017,4 hPa 0,0 l/m 0,5 km/h (0 Bft) N-NW 331 0 min 0,000 mm 0 W/m -0,2 C 2,2 C 4,8 km/h (1 Bft) 100 %
17.02.2014 21:10 1,9 C 1,9 C 2,2 C 85 % 1017,4 hPa 0,0 l/m 1,6 km/h (1 Bft) N-NW 337 0 min 0,000 mm 0 W/m -0,3 C 1,9 C 4,8 km/h (1 Bft) 100 %
17.02.2014 21:20 1,7 C 1,7 C 1,9 C 85 % 1017,5 hPa 0,0 l/m 1,6 km/h (1 Bft) N-NW 337 0 min 0,000 mm 0 W/m -0,5 C 1,7 C 4,8 km/h (1 Bft) 100 %
17.02.2014 21:30 1,4 C 1,4 C 1,7 C 86 % 1017,6 hPa 0,0 l/m 1,6 km/h (1 Bft) N-NW 337 0 min 0,000 mm 0 W/m -0,7 C 1,4 C 4,8 km/h (1 Bft) 91 %
17.02.2014 21:40 1,3 C 1,3 C 1,4 C 87 % 1017,5 hPa 0,0 l/m 1,6 km/h (1 Bft) N 360 0 min 0,000 mm 0 W/m -0,6 C 1,3 C 4,8 km/h (1 Bft) 100 %
17.02.2014 21:50 1,3 C 1,3 C 1,4 C 87 % 1017,5 hPa 0,0 l/m 0,0 km/h (0 Bft) N-NW 337 0 min 0,000 mm 0 W/m -0,6 C 1,3 C 1,6 km/h (1 Bft) 100 %
17.02.2014 22:00 1,1 C 1,1 C 1,3 C 87 % 1017,6 hPa 0,0 l/m 0,0 km/h (0 Bft) N-NW 337 0 min 0,000 mm 0 W/m -0,8 C 1,1 C 3,2 km/h (1 Bft) 100 %
17.02.2014 22:10 0,9 C 0,9 C 1,1 C 87 % 1017,8 hPa 0,0 l/m 0,0 km/h (0 Bft) N-NW 337 0 min 0,000 mm 0 W/m -1,0 C 0,9 C 4,8 km/h (1 Bft) 100 %
17.02.2014 22:20 0,9 C 0,8 C 0,9 C 88 % 1017,9 hPa 0,0 l/m 0,0 km/h (0 Bft) N-NW 337 0 min 0,000 mm 0 W/m -0,9 C 0,9 C 3,2 km/h (1 Bft) 100 %
17.02.2014 22:30 1,3 C 0,9 C 1,3 C 88 % 1017,7 hPa 0,0 l/m 0,0 km/h (0 Bft) NO 45 0 min 0,000 mm 0 W/m -0,5 C 1,3 C 1,6 km/h (1 Bft) 100 %
17.02.2014 22:40 1,4 C 1,3 C 1,4 C 86 % 1017,7 hPa 0,0 l/m 0,0 km/h (0 Bft) N-NO 22 0 min 0,000 mm 0 W/m -0,7 C 1,4 C 1,6 km/h (1 Bft) 100 %
17.02.2014 22:50 1,4 C 1,4 C 1,4 C 86 % 1017,6 hPa 0,0 l/m 0,0 km/h (0 Bft) W 270 0 min 0,000 mm 0 W/m -0,7 C 1,4 C 4,8 km/h (1 Bft) 100 %
17.02.2014 23:00 1,3 C 1,3 C 1,4 C 86 % 1017,6 hPa 0,0 l/m 1,6 km/h (1 Bft) W 270 0 min 0,000 mm 0 W/m -0,8 C 1,3 C 3,2 km/h (1 Bft) 90 %
17.02.2014 23:10 1,2 C 1,2 C 1,3 C 87 % 1017,6 hPa 0,0 l/m 1,6 km/h (1 Bft) NW 315 0 min 0,000 mm 0 W/m -0,7 C 1,2 C 6,4 km/h (2 Bft) 100 %
17.02.2014 23:20 1,2 C 1,2 C 1,2 C 87 % 1017,6 hPa 0,0 l/m 0,0 km/h (0 Bft) NW 315 0 min 0,000 mm 0 W/m -0,7 C 1,2 C 4,8 km/h (1 Bft) 100 %
17.02.2014 23:30 1,0 C 1,0 C 1,2 C 86 % 1017,7 hPa 0,0 l/m 0,0 km/h (0 Bft) NW 315 0 min 0,000 mm 0 W/m -1,1 C 1,0 C 3,2 km/h (1 Bft) 100 %
17.02.2014 23:40 0,9 C 0,9 C 1,0 C 87 % 1017,8 hPa 0,0 l/m 0,0 km/h (0 Bft) NW 315 0 min 0,000 mm 0 W/m -1,0 C 0,9 C 4,8 km/h (1 Bft) 100 %
17.02.2014 23:50 0,9 C 0,9 C 0,9 C 87 % 1017,8 hPa 0,0 l/m 0,0 km/h (0 Bft) NW 315 0 min 0,000 mm 0 W/m -1,0 C 0,9 C 3,2 km/h (1 Bft) 100 %
_ Min-Zeit 08:10 08:10 08:20 16:30 02:00 - 00:00 - - - - - 08:20 08:10 03:50 02:30
Minimum _ -0,4 C -0,4 C -0,4 C 56 % 1014,0 hPa - 0,0 km/h (0 Bft) - - - - - -2,1 C -0,4 C 0,0 km/h (0 Bft) 87 %
_ Max-Zeit 15:00 15:00 15:00 00:50 22:20 04:50 13:40 - - 08:50 13:00 14:00 12:00 15:00 12:30 00:20
Maximum _ 10,8 C 10,3 C 10,8 C 89 % 1017,9 hPa 0,2 l/m 6,3 km/h
W-SW (2 Bft)
- - 10 min 0,229 mm 508 W/m 4,5 C 10,7 C 16,1 km/h
S-SW (3 Bft)
100 %
Durchschnitt _ 4,5 C 4,4 C 4,6 C 79 % 1015,8 hPa #0,2 l/m 0,9 km/h (0 Bft) S-SW - #5:50 h #1,194 mm 245 W/m 1,0 C 4,5 C 4,1 km/h (1 Bft) 98 %
PRIVATE WETTERSTATION BILLIGHEIM-ALLFELD - www.neckar-odenwald-wetter.de - Holger Sonntag